Time;durP1;ratioP1;P1;durP2;ratioP2;P2;SDS_P1;SDS_P2;PMS_P1;PMS_P2;Temp;Humidity;BMP_temperature;BMP_pressure;BME280_temperature;BME280_humidity;BME280_pressure;Samples;Min_cycle;Max_cycle;Signal;HPM_P1;HPM_P2
2022/04/09 00:00:11;;;;;;;0.40;0.20;;;2.80;99.90;;;;;;5010574;28;20387;-72
2022/04/09 00:02:37;;;;;;;0.40;0.20;;;2.90;99.90;;;;;;5025509;28;20882;-73
2022/04/09 00:05:03;;;;;;;0.40;0.20;;;2.70;99.90;;;;;;5010338;28;20381;-72
2022/04/09 00:07:28;;;;;;;0.40;0.20;;;2.70;99.90;;;;;;5010782;28;20400;-73
2022/04/09 00:09:55;;;;;;;0.40;0.20;;;2.70;99.90;;;;;;5031772;28;20482;-72
2022/04/09 00:12:20;;;;;;;0.40;0.20;;;2.80;99.90;;;;;;5030649;28;20450;-73
2022/04/09 00:14:46;;;;;;;0.40;0.20;;;2.60;99.90;;;;;;5030368;28;20776;-73
2022/04/09 00:17:12;;;;;;;0.40;0.30;;;2.60;99.90;;;;;;5029813;28;20461;-71
2022/04/09 00:19:37;;;;;;;0.40;0.20;;;2.70;99.90;;;;;;5030734;28;20477;-72
2022/04/09 00:22:04;;;;;;;0.40;0.20;;;2.70;99.90;;;;;;5029278;28;20394;-71
2022/04/09 00:24:30;;;;;;;0.40;0.20;;;2.50;99.90;;;;;;5045880;28;20730;-70
2022/04/09 00:26:55;;;;;;;0.40;0.20;;;2.40;99.90;;;;;;5028954;28;20394;-72
2022/04/09 00:29:21;;;;;;;0.40;0.20;;;2.40;99.90;;;;;;5030051;28;20388;-71
2022/04/09 00:31:47;;;;;;;0.40;0.20;;;2.50;99.90;;;;;;5030504;28;20414;-71
2022/04/09 00:34:13;;;;;;;0.40;0.20;;;2.60;99.90;;;;;;5029892;28;20390;-70
2022/04/09 00:36:39;;;;;;;0.40;0.20;;;2.50;99.90;;;;;;5030055;28;20447;-70
2022/04/09 00:39:05;;;;;;;0.40;0.20;;;2.60;99.90;;;;;;5030179;28;20517;-71
2022/04/09 00:41:30;;;;;;;0.40;0.20;;;2.50;99.90;;;;;;5021847;28;20507;-71
2022/04/09 00:43:56;;;;;;;0.40;0.20;;;2.60;99.90;;;;;;4999607;28;20384;-70
2022/04/09 00:46:22;;;;;;;0.40;0.20;;;2.60;99.90;;;;;;5009578;28;20388;-71
2022/04/09 00:48:48;;;;;;;0.40;0.20;;;2.60;99.90;;;;;;5009144;28;20860;-70
2022/04/09 00:51:13;;;;;;;0.40;0.20;;;2.60;99.90;;;;;;5009618;28;20442;-71
2022/04/09 00:53:42;;;;;;;0.40;0.20;;;2.60;99.90;;;;;;5010045;28;20389;-70
2022/04/09 00:56:13;;;;;;;0.40;0.20;;;2.60;99.90;;;;;;5010155;28;20475;-69
2022/04/09 00:59:06;;;;;;;0.40;0.20;;;2.60;99.90;;;;;;4994393;28;20379;-70
2022/04/09 01:01:36;;;;;;;0.40;0.20;;;2.70;99.90;;;;;;4987688;28;20766;-70
2022/04/09 01:04:11;;;;;;;0.40;0.20;;;2.70;99.90;;;;;;4994368;28;20510;-70
2022/04/09 01:06:38;;;;;;;0.40;0.20;;;2.70;99.90;;;;;;4993311;28;20429;-70
2022/04/09 01:09:06;;;;;;;0.40;0.20;;;2.80;99.90;;;;;;4994598;28;20398;-70
2022/04/09 01:11:33;;;;;;;0.40;0.20;;;2.60;99.90;;;;;;4997918;28;20867;-71
2022/04/09 01:14:00;;;;;;;0.40;0.20;;;2.60;99.90;;;;;;5013900;28;20764;-71
2022/04/09 01:16:28;;;;;;;0.40;0.20;;;2.60;99.90;;;;;;5014080;28;20866;-71
2022/04/09 01:19:01;;;;;;;0.40;0.20;;;2.70;99.90;;;;;;5014257;28;20458;-71
2022/04/09 01:21:28;;;;;;;0.40;0.20;;;2.70;99.90;;;;;;5014228;28;20396;-70
2022/04/09 01:23:54;;;;;;;0.40;0.20;;;2.40;99.90;;;;;;5013114;28;20378;-70
2022/04/09 01:26:21;;;;;;;0.40;0.20;;;2.50;99.90;;;;;;5013934;28;20392;-70
2022/04/09 01:28:47;;;;;;;0.40;0.20;;;2.40;99.90;;;;;;5012834;28;20893;-70
2022/04/09 01:31:14;;;;;;;0.40;0.20;;;2.40;99.90;;;;;;5013705;28;20516;-70
2022/04/09 01:33:40;;;;;;;0.40;0.20;;;2.40;99.90;;;;;;5013440;28;20457;-72
2022/04/09 01:36:06;;;;;;;0.40;0.20;;;2.50;99.90;;;;;;5013453;28;20392;-71
2022/04/09 01:38:34;;;;;;;0.40;0.20;;;2.50;99.90;;;;;;5012979;28;20424;-71
2022/04/09 01:41:00;;;;;;;0.40;0.20;;;2.60;99.90;;;;;;5012507;28;20895;-72
2022/04/09 01:43:25;;;;;;;0.40;0.20;;;2.80;99.90;;;;;;5013631;28;20392;-72
2022/04/09 01:45:51;;;;;;;0.40;0.20;;;2.60;99.90;;;;;;5012476;28;20381;-72
2022/04/09 01:48:17;;;;;;;0.40;0.20;;;2.70;99.90;;;;;;5013398;28;20396;-72
2022/04/09 01:50:43;;;;;;;0.40;0.20;;;2.70;99.90;;;;;;5028532;28;20420;-71
2022/04/09 01:53:09;;;;;;;0.40;0.30;;;2.60;99.90;;;;;;5012383;28;20373;-71
2022/04/09 01:55:35;;;;;;;0.40;0.20;;;2.80;99.90;;;;;;5028049;28;20401;-72
2022/04/09 01:58:00;;;;;;;0.40;0.20;;;2.60;99.90;;;;;;5012291;28;20436;-73
2022/04/09 02:00:26;;;;;;;0.40;0.20;;;2.60;99.90;;;;;;5013274;28;20388;-72
2022/04/09 02:02:52;;;;;;;0.40;0.20;;;2.70;99.90;;;;;;5013061;28;20462;-73
2022/04/09 02:05:19;;;;;;;0.40;0.20;;;2.80;99.90;;;;;;5012403;28;20861;-73
2022/04/09 02:07:47;;;;;;;0.40;0.20;;;2.80;99.90;;;;;;5013006;28;20468;-73
2022/04/09 02:10:13;;;;;;;0.40;0.20;;;2.80;99.90;;;;;;5011170;28;20965;-73
2022/04/09 02:12:39;;;;;;;0.40;0.20;;;2.50;99.90;;;;;;5012410;28;20765;-72
2022/04/09 02:15:10;;;;;;;0.40;0.20;;;2.50;99.90;;;;;;5011432;28;20411;-72
2022/04/09 02:17:38;;;;;;;0.40;0.20;;;2.60;99.90;;;;;;5012361;28;20392;-71
2022/04/09 02:20:05;;;;;;;0.40;0.20;;;2.80;99.90;;;;;;5012853;28;20808;-69
2022/04/09 02:22:39;;;;;;;0.40;0.20;;;2.50;99.90;;;;;;5012077;28;20489;-70
2022/04/09 02:25:08;;;;;;;0.40;0.20;;;2.60;99.90;;;;;;5012845;28;20496;-70
2022/04/09 02:27:34;;;;;;;0.40;0.20;;;2.90;99.90;;;;;;5011771;28;20396;-71
2022/04/09 02:30:01;;;;;;;0.40;0.20;;;2.80;99.90;;;;;;5012165;28;20443;-72
2022/04/09 02:32:27;;;;;;;0.40;0.20;;;2.80;99.90;;;;;;5011653;28;20408;-72
2022/04/09 02:34:53;;;;;;;0.40;0.20;;;2.70;99.90;;;;;;5012122;28;20907;-72
2022/04/09 02:37:20;;;;;;;0.40;0.20;;;2.80;99.90;;;;;;5011287;28;20415;-75
2022/04/09 02:39:46;;;;;;;0.40;0.20;;;2.60;99.90;;;;;;5027664;28;20403;-74
2022/04/09 02:42:15;;;;;;;0.40;0.20;;;2.70;99.90;;;;;;5003761;28;20398;-74
2022/04/09 02:44:41;;;;;;;0.40;0.20;;;2.80;99.90;;;;;;4999567;28;21113;-74
2022/04/09 02:47:07;;;;;;;0.40;0.20;;;2.70;99.90;;;;;;4992619;28;20394;-73
2022/04/09 02:49:33;;;;;;;0.40;0.20;;;2.80;99.90;;;;;;4991553;28;20441;-73
2022/04/09 02:51:58;;;;;;;0.40;0.20;;;2.90;99.90;;;;;;4992010;28;20438;-73
2022/04/09 02:54:24;;;;;;;0.40;0.20;;;3.00;99.90;;;;;;4992235;28;20421;-73
2022/04/09 02:56:50;;;;;;;0.40;0.20;;;3.00;99.90;;;;;;4990276;28;20449;-73
2022/04/09 02:59:16;;;;;;;0.40;0.20;;;2.90;99.90;;;;;;4992677;28;20460;-73
2022/04/09 03:01:46;;;;;;;0.40;0.20;;;3.00;99.90;;;;;;4991849;28;20383;-74
2022/04/09 03:04:13;;;;;;;0.40;0.20;;;3.10;99.90;;;;;;4992640;28;20486;-73
2022/04/09 03:06:39;;;;;;;0.40;0.20;;;3.00;99.90;;;;;;4991112;28;20394;-74
2022/04/09 03:09:05;;;;;;;0.40;0.20;;;3.00;99.90;;;;;;4992484;28;20401;-73
2022/04/09 03:11:31;;;;;;;0.40;0.20;;;3.00;99.90;;;;;;5042803;28;20487;-72
2022/04/09 03:13:57;;;;;;;0.40;0.20;;;2.90;99.90;;;;;;5010821;28;21262;-73
2022/04/09 03:16:23;;;;;;;0.40;0.20;;;2.80;99.90;;;;;;5011335;28;20380;-73
2022/04/09 03:18:48;;;;;;;0.40;0.20;;;2.90;99.90;;;;;;5010739;28;20415;-73
2022/04/09 03:21:15;;;;;;;0.40;0.20;;;3.00;99.90;;;;;;5011211;28;20397;-73
2022/04/09 03:23:41;;;;;;;0.40;0.20;;;3.00;99.90;;;;;;5011866;28;20420;-72
2022/04/09 03:26:07;;;;;;;0.40;0.20;;;3.10;99.90;;;;;;5010491;28;20482;-73
2022/04/09 03:28:32;;;;;;;0.40;0.20;;;3.10;99.90;;;;;;5026593;28;20393;-72
2022/04/09 03:30:59;;;;;;;0.40;0.20;;;3.10;99.90;;;;;;5025693;28;20544;-73
2022/04/09 03:33:25;;;;;;;0.40;0.20;;;3.00;99.90;;;;;;5011425;28;20492;-72
2022/04/09 03:35:51;;;;;;;0.40;0.20;;;3.00;99.90;;;;;;5011273;28;20381;-76
2022/04/09 03:38:17;;;;;;;0.40;0.20;;;3.00;99.90;;;;;;5010767;28;20766;-73
2022/04/09 03:40:43;;;;;;;0.40;0.20;;;3.10;99.90;;;;;;5011776;28;20888;-72
2022/04/09 03:43:10;;;;;;;0.40;0.20;;;3.10;99.90;;;;;;4992555;28;20398;-73
2022/04/09 03:45:36;;;;;;;0.40;0.20;;;3.10;99.90;;;;;;4992044;28;20406;-73
2022/04/09 03:48:02;;;;;;;0.40;0.20;;;3.10;99.90;;;;;;4989910;28;20437;-74
2022/04/09 03:50:28;;;;;;;0.40;0.20;;;3.00;99.90;;;;;;4990749;28;20393;-73
2022/04/09 03:52:53;;;;;;;0.40;0.20;;;3.20;99.90;;;;;;4991806;28;20946;-73
2022/04/09 03:55:19;;;;;;;0.40;0.20;;;3.20;99.90;;;;;;4991441;28;20773;-73
2022/04/09 03:57:45;;;;;;;0.40;0.20;;;3.10;99.90;;;;;;4992207;28;20378;-73
2022/04/09 04:00:13;;;;;;;0.40;0.20;;;3.00;99.90;;;;;;4991203;28;20386;-73
2022/04/09 04:02:39;;;;;;;0.40;0.20;;;3.10;99.90;;;;;;4991207;28;20739;-73
2022/04/09 04:05:06;;;;;;;0.40;0.20;;;3.10;99.90;;;;;;4991633;28;20783;-73
2022/04/09 04:07:33;;;;;;;0.40;0.20;;;3.10;99.90;;;;;;4990797;28;20397;-73
2022/04/09 04:10:09;;;;;;;0.40;0.20;;;3.20;99.90;;;;;;5005404;28;20466;-73
2022/04/09 04:12:34;;;;;;;0.40;0.20;;;3.30;99.90;;;;;;5029772;28;20418;-73
2022/04/09 04:15:00;;;;;;;0.40;0.20;;;3.30;99.90;;;;;;5030646;28;20457;-74
2022/04/09 04:17:26;;;;;;;0.40;0.20;;;3.40;99.90;;;;;;5028781;28;20379;-73
2022/04/09 04:19:52;;;;;;;0.40;0.20;;;3.20;99.90;;;;;;5030705;28;20419;-74
2022/04/09 04:22:18;;;;;;;0.40;0.20;;;3.30;99.90;;;;;;5030440;28;20416;-77
2022/04/09 04:24:44;;;;;;;0.40;0.20;;;3.30;99.90;;;;;;5030610;28;20383;-74
2022/04/09 04:27:09;;;;;;;0.40;0.20;;;3.30;99.90;;;;;;5030333;28;20402;-74
2022/04/09 04:29:35;;;;;;;0.40;0.20;;;3.10;99.90;;;;;;5028815;28;20466;-74
2022/04/09 04:32:01;;;;;;;0.40;0.20;;;3.20;99.90;;;;;;5030593;28;20411;-74
2022/04/09 04:34:27;;;;;;;0.40;0.20;;;3.20;99.90;;;;;;5028653;28;20395;-75
2022/04/09 04:36:53;;;;;;;0.40;0.20;;;3.30;99.90;;;;;;5031588;28;20402;-74
2022/04/09 04:39:19;;;;;;;0.40;0.20;;;3.30;99.90;;;;;;5034643;28;20892;-74
2022/04/09 04:41:45;;;;;;;0.40;0.20;;;3.30;99.90;;;;;;5033929;28;20391;-74
2022/04/09 04:44:10;;;;;;;0.40;0.20;;;3.30;99.90;;;;;;5004980;28;20416;-74
2022/04/09 04:46:38;;;;;;;0.40;0.20;;;3.40;99.90;;;;;;5019021;28;20875;-74
2022/04/09 04:49:04;;;;;;;0.40;0.20;;;3.20;99.90;;;;;;5010520;28;20386;-74
2022/04/09 04:51:29;;;;;;;0.40;0.30;;;3.20;99.90;;;;;;5014479;28;20967;-74
2022/04/09 04:53:55;;;;;;;0.40;0.20;;;3.30;99.90;;;;;;5013870;28;20472;-74
2022/04/09 04:56:23;;;;;;;0.40;0.20;;;3.20;99.90;;;;;;5014797;28;20413;-74
2022/04/09 04:58:50;;;;;;;0.40;0.20;;;3.40;99.90;;;;;;5013868;28;20380;-74
2022/04/09 05:01:16;;;;;;;0.40;0.20;;;3.20;99.90;;;;;;5000764;28;20391;-74
2022/04/09 05:03:41;;;;;;;0.40;0.20;;;3.20;99.90;;;;;;4993522;28;20387;-77
2022/04/09 05:06:07;;;;;;;0.40;0.20;;;3.40;99.90;;;;;;5009556;28;20949;-74
2022/04/09 05:08:33;;;;;;;0.40;0.20;;;3.40;99.90;;;;;;4994697;28;20430;-74
2022/04/09 05:10:59;;;;;;;0.40;0.20;;;3.40;99.90;;;;;;5023220;28;20419;-74
2022/04/09 05:13:24;;;;;;;0.40;0.20;;;3.40;99.90;;;;;;5010752;28;20755;-74
2022/04/09 05:15:50;;;;;;;0.40;0.20;;;3.60;99.90;;;;;;4994268;28;20379;-76
2022/04/09 05:18:16;;;;;;;0.40;0.20;;;3.50;99.90;;;;;;4994632;28;20423;-75
2022/04/09 05:20:41;;;;;;;0.40;0.20;;;3.50;99.90;;;;;;5009779;28;20751;-74
2022/04/09 05:23:07;;;;;;;0.40;0.20;;;3.60;99.90;;;;;;5008610;28;20428;-75
2022/04/09 05:25:33;;;;;;;0.40;0.30;;;3.70;99.90;;;;;;4994224;28;20466;-74
2022/04/09 05:28:08;;;;;;;0.40;0.20;;;3.60;99.90;;;;;;4993553;28;20397;-74
2022/04/09 05:30:34;;;;;;;0.40;0.20;;;3.70;99.90;;;;;;4994408;28;20522;-75
2022/04/09 05:33:00;;;;;;;0.40;0.20;;;3.50;99.90;;;;;;4993838;28;20394;-75
2022/04/09 05:35:26;;;;;;;0.40;0.20;;;3.50;99.90;;;;;;4994387;28;20386;-75
2022/04/09 05:37:52;;;;;;;0.40;0.20;;;3.60;99.90;;;;;;4994183;28;20497;-75
2022/04/09 05:40:19;;;;;;;0.40;0.20;;;3.60;99.90;;;;;;4993273;28;20569;-74
2022/04/09 05:42:45;;;;;;;0.40;0.20;;;3.70;99.90;;;;;;4994300;28;20485;-74
2022/04/09 05:45:11;;;;;;;0.40;0.20;;;3.70;99.90;;;;;;4993610;28;20525;-74
2022/04/09 05:47:42;;;;;;;0.40;0.20;;;3.60;99.90;;;;;;4994041;28;20393;-74
2022/04/09 05:50:11;;;;;;;0.40;0.20;;;3.70;99.90;;;;;;5008382;28;20949;-77
2022/04/09 05:52:37;;;;;;;0.40;0.20;;;3.70;99.90;;;;;;4993975;28;20418;-74
2022/04/09 05:55:06;;;;;;;0.40;0.20;;;3.70;99.90;;;;;;4994048;28;20411;-74
2022/04/09 05:57:33;;;;;;;0.40;0.20;;;3.70;99.90;;;;;;4992892;28;20493;-74
2022/04/09 05:59:59;;;;;;;0.40;0.20;;;3.70;99.90;;;;;;5009038;28;20437;-74
2022/04/09 06:02:25;;;;;;;0.40;0.20;;;3.80;99.90;;;;;;4992787;28;20393;-76
2022/04/09 06:04:51;;;;;;;0.40;0.20;;;3.90;99.90;;;;;;4993685;28;20728;-75
2022/04/09 06:07:17;;;;;;;0.40;0.20;;;3.90;99.90;;;;;;4993084;28;20406;-77
2022/04/09 06:09:43;;;;;;;0.40;0.20;;;3.90;99.90;;;;;;5003392;28;20391;-74
2022/04/09 06:12:10;;;;;;;0.40;0.20;;;3.90;99.90;;;;;;5033083;28;20450;-74
2022/04/09 06:14:36;;;;;;;0.40;0.20;;;4.00;99.90;;;;;;5032171;28;20406;-74
2022/04/09 06:17:02;;;;;;;0.40;0.20;;;4.00;99.90;;;;;;5048434;28;20418;-74
2022/04/09 06:19:29;;;;;;;0.40;0.20;;;4.00;99.90;;;;;;5031866;28;20903;-74
2022/04/09 06:21:56;;;;;;;0.40;0.20;;;4.00;99.90;;;;;;5032754;28;20394;-74
2022/04/09 06:24:22;;;;;;;0.40;0.20;;;4.00;99.90;;;;;;5032860;28;20387;-76
2022/04/09 06:26:48;;;;;;;0.40;0.20;;;4.10;99.90;;;;;;5032078;28;20383;-74
2022/04/09 06:29:13;;;;;;;0.40;0.20;;;4.10;99.90;;;;;;5032311;28;20402;-74
2022/04/09 06:31:39;;;;;;;0.40;0.20;;;4.00;99.90;;;;;;5031779;28;20464;-74
2022/04/09 06:34:05;;;;;;;0.40;0.20;;;4.20;99.90;;;;;;5032261;28;20892;-73
2022/04/09 06:36:30;;;;;;;0.40;0.30;;;4.20;99.90;;;;;;5031462;28;20382;-73
2022/04/09 06:38:56;;;;;;;0.40;0.20;;;4.30;99.90;;;;;;5031908;28;20407;-72
2022/04/09 06:41:22;;;;;;;0.40;0.20;;;4.30;99.90;;;;;;5032223;28;20410;-72
2022/04/09 06:43:48;;;;;;;0.40;0.20;;;4.20;99.90;;;;;;5006009;28;20505;-72
2022/04/09 06:46:15;;;;;;;0.40;0.20;;;4.10;99.90;;;;;;5012556;28;20380;-73
2022/04/09 06:48:41;;;;;;;0.40;0.20;;;4.20;99.90;;;;;;5004543;28;20379;-72
2022/04/09 06:51:07;;;;;;;0.40;0.20;;;4.20;99.90;;;;;;4991923;28;20898;-74
2022/04/09 06:53:33;;;;;;;0.40;0.20;;;4.20;99.90;;;;;;4993136;28;20398;-73
2022/04/09 06:55:59;;;;;;;0.40;0.20;;;4.20;99.90;;;;;;4993021;28;20383;-72
2022/04/09 06:58:24;;;;;;;0.40;0.20;;;4.30;99.90;;;;;;4992949;28;20449;-72
2022/04/09 07:00:50;;;;;;;0.40;0.20;;;4.50;99.90;;;;;;4991189;28;20379;-73
2022/04/09 07:03:16;;;;;;;0.40;0.20;;;4.30;99.90;;;;;;4992506;28;20369;-73
2022/04/09 07:05:42;;;;;;;0.40;0.20;;;4.40;99.90;;;;;;4992126;28;20930;-75
2022/04/09 07:08:08;;;;;;;0.40;0.20;;;4.50;99.90;;;;;;4992277;28;20775;-73
2022/04/09 07:10:38;;;;;;;0.40;0.20;;;4.60;99.90;;;;;;5016205;28;20386;-73
2022/04/09 07:13:05;;;;;;;0.40;0.20;;;4.60;99.90;;;;;;5015527;28;20385;-73
2022/04/09 07:15:31;;;;;;;0.40;0.22;;;4.70;99.90;;;;;;5012036;28;20384;-73
2022/04/09 07:17:57;;;;;;;0.40;0.20;;;4.80;99.90;;;;;;5011330;28;20439;-74
2022/04/09 07:20:23;;;;;;;0.40;0.20;;;4.70;99.90;;;;;;5012076;28;20805;-73
2022/04/09 07:22:49;;;;;;;0.40;0.20;;;4.70;99.90;;;;;;5011838;28;20380;-75
2022/04/09 07:25:16;;;;;;;0.40;0.20;;;4.70;99.90;;;;;;5011446;28;20392;-74
2022/04/09 07:27:49;;;;;;;0.40;0.20;;;4.70;99.90;;;;;;5012048;28;20397;-74
2022/04/09 07:30:18;;;;;;;0.40;0.20;;;4.60;99.90;;;;;;5010968;28;20385;-74
2022/04/09 07:32:45;;;;;;;0.40;0.20;;;4.50;99.90;;;;;;5011260;28;20886;-74
2022/04/09 07:35:12;;;;;;;0.40;0.20;;;4.50;99.90;;;;;;5010798;28;20396;-74
2022/04/09 07:37:55;;;;;;;0.40;0.20;;;4.50;99.90;;;;;;5011431;28;20893;-74
2022/04/09 07:40:24;;;;;;;0.40;0.20;;;4.50;99.90;;;;;;5010924;28;20385;-74
2022/04/09 07:42:51;;;;;;;0.40;0.40;;;4.40;99.90;;;;;;5011675;28;20397;-74
2022/04/09 07:45:17;;;;;;;0.40;0.20;;;4.50;99.90;;;;;;5010883;28;20408;-74
2022/04/09 07:47:44;;;;;;;0.40;0.20;;;4.50;99.90;;;;;;5011512;28;20910;-74
2022/04/09 07:50:11;;;;;;;0.40;0.20;;;4.60;99.90;;;;;;5010805;28;20388;-74
2022/04/09 07:52:39;;;;;;;0.40;0.20;;;4.70;99.90;;;;;;5026542;28;20420;-74
2022/04/09 07:55:09;;;;;;;0.40;0.20;;;4.60;99.90;;;;;;5026506;28;20404;-74
2022/04/09 07:57:35;;;;;;;0.40;0.20;;;4.60;99.90;;;;;;5010802;28;20389;-74
2022/04/09 08:00:00;;;;;;;0.40;0.20;;;4.80;99.90;;;;;;5010913;28;20438;-74
2022/04/09 08:02:26;;;;;;;0.40;0.20;;;4.90;99.90;;;;;;5010016;28;20885;-73
2022/04/09 08:04:52;;;;;;;0.40;0.20;;;5.00;99.90;;;;;;5011145;28;20455;-73
2022/04/09 08:07:17;;;;;;;0.40;0.20;;;5.20;99.90;;;;;;5010109;28;20401;-74
2022/04/09 08:09:46;;;;;;;0.40;0.20;;;5.30;99.90;;;;;;5015913;28;20401;-73
2022/04/09 08:12:12;;;;;;;0.40;0.20;;;5.10;99.90;;;;;;5029957;28;20415;-73
2022/04/09 08:14:39;;;;;;;0.40;0.20;;;5.30;99.90;;;;;;5029897;28;20588;-73
2022/04/09 08:17:05;;;;;;;0.40;0.20;;;5.70;99.90;;;;;;5030871;28;20403;-73
2022/04/09 08:19:30;;;;;;;0.40;0.20;;;5.60;99.90;;;;;;5030131;28;20787;-73
2022/04/09 08:21:57;;;;;;;0.40;0.20;;;5.90;99.90;;;;;;5030791;28;20383;-73
2022/04/09 08:24:23;;;;;;;0.40;0.20;;;5.90;99.90;;;;;;5021110;28;20754;-72
2022/04/09 08:26:49;;;;;;;0.40;0.20;;;6.00;99.90;;;;;;4995421;28;20382;-72
2022/04/09 08:29:20;;;;;;;1.00;0.90;;;5.70;99.90;;;;;;4991776;28;20375;-73
2022/04/09 08:31:47;;;;;;;0.40;0.20;;;5.50;99.90;;;;;;4990449;28;20501;-73
2022/04/09 08:34:18;;;;;;;0.40;0.20;;;5.50;99.90;;;;;;4999446;28;20393;-73
2022/04/09 08:36:44;;;;;;;0.40;0.20;;;5.50;99.90;;;;;;5009885;28;20391;-73
2022/04/09 08:39:11;;;;;;;0.40;0.40;;;5.60;99.90;;;;;;5010644;28;20415;-73
2022/04/09 08:41:38;;;;;;;0.40;0.40;;;5.70;99.90;;;;;;5001087;28;20495;-74
2022/04/09 08:44:05;;;;;;;0.63;0.60;;;5.80;99.90;;;;;;4991653;28;20473;-73
2022/04/09 08:46:30;;;;;;;0.40;0.20;;;5.90;99.90;;;;;;4997044;28;20403;-73
2022/04/09 08:48:58;;;;;;;0.40;0.20;;;5.90;99.90;;;;;;5001630;28;20871;-73
2022/04/09 08:51:25;;;;;;;0.40;0.20;;;5.90;99.90;;;;;;5010128;28;20629;-72
2022/04/09 08:53:52;;;;;;;0.40;0.20;;;5.90;99.90;;;;;;5009336;28;20398;-73
2022/04/09 08:56:18;;;;;;;0.40;0.20;;;5.80;99.90;;;;;;5009722;28;20381;-73
2022/04/09 08:58:44;;;;;;;0.40;0.20;;;5.80;99.90;;;;;;5015395;28;20794;-72
2022/04/09 09:01:10;;;;;;;0.40;0.20;;;5.80;99.90;;;;;;5020218;28;20389;-73
2022/04/09 09:03:36;;;;;;;1.00;0.90;;;5.60;99.90;;;;;;5021459;28;20526;-73
2022/04/09 09:06:28;;;;;;;0.40;0.20;;;5.70;99.90;;;;;;5019782;28;20454;-73
2022/04/09 09:08:55;;;;;;;0.40;0.20;;;5.90;99.90;;;;;;5008981;28;20395;-72
2022/04/09 09:11:22;;;;;;;0.40;0.20;;;5.90;99.90;;;;;;5021247;28;20413;-72
2022/04/09 09:13:53;;;;;;;0.40;0.20;;;5.50;99.90;;;;;;4998831;28;20466;-72
2022/04/09 09:16:32;;;;;;;0.70;0.60;;;5.90;99.90;;;;;;5005067;28;20456;-72
2022/04/09 09:18:57;;;;;;;0.40;0.35;;;6.10;99.90;;;;;;5007645;28;20393;-72
2022/04/09 09:21:26;;;;;;;0.40;0.20;;;6.20;99.90;;;;;;5008344;28;20404;-72
2022/04/09 09:23:53;;;;;;;0.40;0.20;;;6.20;99.90;;;;;;5011577;28;20810;-72
2022/04/09 09:26:21;;;;;;;0.40;0.20;;;6.40;99.90;;;;;;5012981;28;20774;-72
2022/04/09 09:28:55;;;;;;;0.40;0.20;;;6.40;99.90;;;;;;5013750;28;20417;-72
2022/04/09 09:31:45;;;;;;;0.40;0.20;;;6.60;99.90;;;;;;5008127;28;20473;-72
2022/04/09 09:34:10;;;;;;;0.40;0.20;;;6.50;99.90;;;;;;5012704;28;20946;-72
2022/04/09 09:36:41;;;;;;;0.40;0.20;;;6.70;99.90;;;;;;4998638;28;20406;-72
2022/04/09 09:39:08;;;;;;;0.40;0.20;;;6.90;99.90;;;;;;4995337;28;20463;-72
2022/04/09 09:41:34;;;;;;;0.40;0.20;;;7.20;99.90;;;;;;5003039;28;20398;-72
2022/04/09 09:44:02;;;;;;;0.40;0.20;;;7.20;99.90;;;;;;4998826;28;20393;-71
2022/04/09 09:46:28;;;;;;;0.40;0.40;;;7.40;99.90;;;;;;5004008;28;20390;-71
2022/04/09 09:48:53;;;;;;;0.40;0.20;;;7.60;99.90;;;;;;5001183;28;20753;-71
2022/04/09 09:51:23;;;;;;;0.40;0.20;;;7.50;99.90;;;;;;5004017;28;20419;-71
2022/04/09 09:53:49;;;;;;;0.40;0.20;;;7.70;99.90;;;;;;5002169;28;20406;-71
2022/04/09 09:56:36;;;;;;;0.40;0.20;;;7.60;99.90;;;;;;5011664;28;20880;-71
2022/04/09 09:59:07;;;;;;;0.43;0.30;;;7.20;99.90;;;;;;5013133;28;20385;-70
2022/04/09 10:01:40;;;;;;;0.50;0.40;;;7.40;99.90;;;;;;5012607;28;20447;-71
2022/04/09 10:04:07;;;;;;;0.40;0.20;;;7.30;99.90;;;;;;5013118;28;20888;-70
2022/04/09 10:06:35;;;;;;;0.40;0.20;;;7.40;99.90;;;;;;5012324;28;20761;-71
2022/04/09 10:09:05;;;;;;;0.40;0.20;;;7.00;99.90;;;;;;5011222;28;20421;-71
2022/04/09 10:11:35;;;;;;;0.40;0.20;;;6.90;99.90;;;;;;5031462;28;20443;-69
2022/04/09 10:14:02;;;;;;;0.40;0.20;;;7.10;99.90;;;;;;5019887;28;20403;-72
2022/04/09 10:16:30;;;;;;;0.40;0.20;;;7.10;99.90;;;;;;5012262;28;20818;-71
2022/04/09 10:18:59;;;;;;;0.40;0.30;;;6.90;99.90;;;;;;5012417;28;20404;-71
2022/04/09 10:21:27;;;;;;;0.40;0.20;;;6.90;99.90;;;;;;5012465;28;20393;-71
2022/04/09 10:23:55;;;;;;;0.50;0.50;;;6.90;99.90;;;;;;5011047;28;20435;-70
2022/04/09 10:26:22;;;;;;;0.40;0.20;;;6.80;99.90;;;;;;5010390;28;20400;-70
2022/04/09 10:28:50;;;;;;;0.40;0.20;;;6.80;99.90;;;;;;5010890;28;20385;-71
2022/04/09 10:31:28;;;;;;;0.40;0.20;;;7.00;99.90;;;;;;5012582;28;20757;-70
2022/04/09 10:33:57;;;;;;;0.40;0.20;;;7.20;99.90;;;;;;5011320;28;20496;-70
2022/04/09 10:36:41;;;;;;;0.40;0.20;;;7.10;99.90;;;;;;5011957;28;20467;-69
2022/04/09 10:39:22;;;;;;;0.40;0.20;;;7.00;99.90;;;;;;5009393;28;20447;-69
2022/04/09 10:41:49;;;;;;;0.40;0.20;;;7.40;99.90;;;;;;5009729;28;20393;-70
2022/04/09 10:44:34;;;;;;;0.40;0.20;;;7.20;99.90;;;;;;5012135;28;20409;-69
2022/04/09 10:47:04;;;;;;;0.40;0.25;;;7.70;99.90;;;;;;5011201;28;20397;-69
2022/04/09 10:49:30;;;;;;;0.40;0.20;;;8.30;99.90;;;;;;5012219;28;20389;-68
2022/04/09 10:52:03;;;;;;;0.40;0.35;;;8.50;99.90;;;;;;5011273;28;21080;-68
2022/04/09 10:54:29;;;;;;;0.40;0.20;;;8.80;99.90;;;;;;5012244;28;20392;-68
2022/04/09 10:57:05;;;;;;;0.40;0.20;;;8.70;98.50;;;;;;5011728;28;20702;-69
2022/04/09 10:59:31;;;;;;;0.40;0.30;;;8.60;98.50;;;;;;5011490;28;20420;-68
2022/04/09 11:01:57;;;;;;;0.40;0.30;;;8.60;99.30;;;;;;5011386;28;20397;-69
2022/04/09 11:04:34;;;;;;;0.40;0.20;;;8.50;98.10;;;;;;5007683;28;20407;-68
2022/04/09 11:07:20;;;;;;;0.40;0.20;;;8.60;99.90;;;;;;5009233;28;20482;-70
2022/04/09 11:09:48;;;;;;;0.70;0.70;;;8.60;99.90;;;;;;5010321;28;20396;-68
2022/04/09 11:12:24;;;;;;;0.70;0.70;;;8.60;99.90;;;;;;5003096;28;20424;-68
2022/04/09 11:15:04;;;;;;;0.40;0.20;;;8.60;93.50;;;;;;5000454;28;20409;-68
2022/04/09 11:17:36;;;;;;;0.40;0.20;;;8.60;89.70;;;;;;5007157;28;20397;-68
2022/04/09 11:20:16;;;;;;;0.40;0.20;;;8.80;89.10;;;;;;5011513;28;20424;-68
2022/04/09 11:22:51;;;;;;;0.40;0.30;;;8.90;90.40;;;;;;5009726;28;20432;-68
2022/04/09 11:25:24;;;;;;;0.40;0.20;;;8.90;89.40;;;;;;5008845;28;20381;-68
2022/04/09 11:27:51;;;;;;;0.40;0.20;;;8.80;90.50;;;;;;5011210;28;20394;-68
2022/04/09 11:30:17;;;;;;;0.40;0.20;;;8.90;88.30;;;;;;5009986;28;20484;-70
2022/04/09 11:32:46;;;;;;;0.40;0.22;;;9.10;90.00;;;;;;5010055;28;20935;-68
2022/04/09 11:35:11;;;;;;;0.40;0.20;;;9.20;86.60;;;;;;5010922;28;20407;-69
2022/04/09 11:37:42;;;;;;;0.40;0.30;;;9.90;82.00;;;;;;5020272;28;21105;-68
2022/04/09 11:40:10;;;;;;;0.40;0.20;;;10.00;78.30;;;;;;5010648;28;20393;-68
2022/04/09 11:42:49;;;;;;;0.40;0.40;;;10.50;81.00;;;;;;5010231;28;20389;-69
2022/04/09 11:45:24;;;;;;;0.40;0.20;;;10.00;71.50;;;;;;5010374;28;20473;-68
2022/04/09 11:48:00;;;;;;;0.40;0.40;;;9.00;75.60;;;;;;5010040;28;20958;-67
2022/04/09 11:50:30;;;;;;;0.40;0.20;;;9.00;79.00;;;;;;5010154;28;20373;-68
2022/04/09 11:53:08;;;;;;;0.40;0.20;;;8.90;76.10;;;;;;5007422;28;20417;-68
2022/04/09 11:55:33;;;;;;;0.40;0.38;;;8.50;74.60;;;;;;5009615;28;20385;-69
2022/04/09 11:57:59;;;;;;;0.40;0.30;;;9.80;81.30;;;;;;5008294;28;20879;-70
2022/04/09 12:00:30;;;;;;;0.40;0.20;;;10.70;78.00;;;;;;5000413;28;20741;-69
2022/04/09 12:03:04;;;;;;;0.40;0.20;;;12.70;75.80;;;;;;5007533;28;20404;-70
2022/04/09 12:05:47;;;;;;;0.40;0.20;;;10.80;69.90;;;;;;5010425;28;20384;-69
2022/04/09 12:08:16;;;;;;;0.40;0.30;;;10.80;69.10;;;;;;5010454;28;20400;-69
2022/04/09 12:10:54;;;;;;;0.40;0.20;;;11.40;65.20;;;;;;5008524;28;20419;-68
2022/04/09 12:13:31;;;;;;;0.40;0.20;;;11.50;64.60;;;;;;5010142;28;20397;-69
2022/04/09 12:16:08;;;;;;;0.40;0.20;;;10.20;59.70;;;;;;5009216;28;20389;-69
2022/04/09 12:18:36;;;;;;;0.40;0.20;;;10.50;60.20;;;;;;5007024;28;20447;-69
2022/04/09 12:21:21;;;;;;;0.40;0.30;;;11.10;67.20;;;;;;5008262;28;20478;-69
2022/04/09 12:23:59;;;;;;;0.40;0.30;;;12.60;58.20;;;;;;5008590;28;20392;-70
2022/04/09 12:26:25;;;;;;;0.40;0.20;;;12.00;58.60;;;;;;5005973;28;20388;-69
2022/04/09 12:29:17;;;;;;;0.40;0.30;;;12.70;56.10;;;;;;5003372;28;20544;-69
2022/04/09 12:31:47;;;;;;;0.40;0.20;;;12.50;56.60;;;;;;5007734;28;20760;-69
2022/04/09 12:34:13;;;;;;;0.40;0.20;;;12.70;54.70;;;;;;5009767;28;20396;-68
2022/04/09 12:37:01;;;;;;;0.40;0.20;;;13.10;54.50;;;;;;5010719;28;20401;-68
2022/04/09 12:39:27;;;;;;;0.40;0.30;;;11.90;55.60;;;;;;5010378;28;20436;-68
2022/04/09 12:41:54;;;;;;;0.40;0.20;;;10.60;54.00;;;;;;5010587;28;20387;-69
2022/04/09 12:44:35;;;;;;;0.40;0.20;;;10.40;56.40;;;;;;5005012;28;20404;-68
2022/04/09 12:47:05;;;;;;;0.40;0.30;;;10.30;57.20;;;;;;5008647;28;20435;-68
2022/04/09 12:49:35;;;;;;;0.40;0.30;;;9.70;58.50;;;;;;5008171;28;20388;-68
2022/04/09 12:52:02;;;;;;;0.40;0.20;;;9.40;60.80;;;;;;5004310;28;21215;-69
2022/04/09 12:54:28;;;;;;;0.63;0.25;;;9.60;63.80;;;;;;5006402;28;20544;-68
2022/04/09 12:56:55;;;;;;;0.40;0.20;;;10.20;60.20;;;;;;5007730;28;20443;-67
2022/04/09 12:59:20;;;;;;;0.40;0.30;;;11.20;58.10;;;;;;5004706;28;20447;-68